Time;durP1;ratioP1;P1;durP2;ratioP2;P2;SDS_P1;SDS_P2;PMS_P1;PMS_P2;Temp;Humidity;BMP_temperature;BMP_pressure;BME280_temperature;BME280_humidity;BME280_pressure;Samples;Min_cycle;Max_cycle;Signal;HPM_P1;HPM_P2
2021/09/17 00:01:55;;;;;;;35.40;26.45;;;;;;;13.54;100.00;101658.78;5082449;28;20050;-65
2021/09/17 00:04:20;;;;;;;33.17;24.85;;;;;;;13.52;100.00;101660.53;5082190;28;20435;-64
2021/09/17 00:06:46;;;;;;;34.10;25.45;;;;;;;13.54;100.00;101664.09;5083202;28;20038;-64
2021/09/17 00:09:11;;;;;;;35.08;26.48;;;;;;;13.46;100.00;101664.94;5081235;28;20028;-64
2021/09/17 00:11:38;;;;;;;36.17;26.73;;;;;;;13.48;100.00;101664.03;5084261;28;20490;-65
2021/09/17 00:14:04;;;;;;;35.38;26.95;;;;;;;13.50;100.00;101666.72;5081054;28;20025;-64
2021/09/17 00:16:29;;;;;;;34.03;26.10;;;;;;;13.52;100.00;101665.84;5083614;28;20426;-64
2021/09/17 00:18:55;;;;;;;34.22;25.92;;;;;;;13.55;100.00;101660.53;5081829;28;20020;-67
2021/09/17 00:21:20;;;;;;;35.05;25.98;;;;;;;13.57;100.00;101656.16;5081841;28;20095;-66
2021/09/17 00:23:46;;;;;;;34.55;26.27;;;;;;;13.57;100.00;101658.81;5083571;28;20039;-67
2021/09/17 00:26:11;;;;;;;35.50;26.98;;;;;;;13.44;100.00;101662.28;5080745;28;20396;-67
2021/09/17 00:28:37;;;;;;;34.05;26.35;;;;;;;13.49;100.00;101662.31;5084035;28;20126;-67
2021/09/17 00:31:03;;;;;;;35.03;26.80;;;;;;;13.53;100.00;101659.66;5080893;28;20100;-67
2021/09/17 00:33:29;;;;;;;34.72;26.48;;;;;;;13.63;100.00;101649.06;5083003;28;20048;-67
2021/09/17 00:35:55;;;;;;;34.45;25.85;;;;;;;13.65;100.00;101650.84;5081620;28;20467;-67
2021/09/17 00:38:21;;;;;;;34.80;25.65;;;;;;;13.65;100.00;101650.84;5085368;28;20028;-67
2021/09/17 00:40:47;;;;;;;37.45;27.75;;;;;;;13.52;100.00;101643.72;5086875;28;20039;-67
2021/09/17 00:43:12;;;;;;;36.28;28.13;;;;;;;13.54;100.00;101641.94;5084475;28;20445;-67
2021/09/17 00:45:38;;;;;;;37.70;29.45;;;;;;;13.54;100.00;101642.84;5087859;28;20034;-67
2021/09/17 00:48:04;;;;;;;35.88;27.33;;;;;;;13.48;100.00;101631.31;5084303;28;20024;-67
2021/09/17 00:50:29;;;;;;;37.15;28.40;;;;;;;13.47;100.00;101633.09;5086646;28;20029;-67
2021/09/17 00:52:56;;;;;;;38.30;30.17;;;;;;;13.40;100.00;101629.50;5085560;28;20059;-67
2021/09/17 00:55:22;;;;;;;36.03;28.25;;;;;;;13.46;100.00;101633.06;5085462;28;20021;-67
2021/09/17 00:57:48;;;;;;;35.38;26.63;;;;;;;13.48;100.00;101637.50;5086189;28;20130;-65
2021/09/17 01:00:14;;;;;;;37.45;28.05;;;;;;;13.52;100.00;101635.75;5084468;28;20111;-66
2021/09/17 01:02:40;;;;;;;37.60;27.63;;;;;;;13.51;100.00;101642.81;5087317;28;20496;-67
2021/09/17 01:05:08;;;;;;;37.40;28.23;;;;;;;13.51;100.00;101645.47;5084243;28;20024;-67
2021/09/17 01:07:34;;;;;;;36.60;28.63;;;;;;;13.51;100.00;101642.81;5087245;28;20020;-67
2021/09/17 01:10:00;;;;;;;38.35;28.80;;;;;;;13.52;100.00;101638.41;5084565;28;20387;-64
2021/09/17 01:12:25;;;;;;;38.08;29.35;;;;;;;13.52;100.00;101633.97;5086292;28;20414;-65
2021/09/17 01:14:51;;;;;;;38.83;29.15;;;;;;;13.57;100.00;101626.94;5085827;28;20027;-64
2021/09/17 01:17:19;;;;;;;39.08;30.33;;;;;;;13.54;100.00;101628.66;5084651;28;20650;-64
2021/09/17 01:19:45;;;;;;;37.75;28.13;;;;;;;13.62;100.00;101634.03;5086543;28;20028;-65
2021/09/17 01:22:10;;;;;;;38.50;28.42;;;;;;;13.68;100.00;101628.75;5083443;28;20020;-64
2021/09/17 01:24:38;;;;;;;40.38;30.23;;;;;;;13.69;100.00;101633.16;5086895;28;20024;-65
2021/09/17 01:27:04;;;;;;;39.13;29.48;;;;;;;13.72;100.00;101627.88;5083805;28;20035;-64
2021/09/17 01:29:30;;;;;;;38.50;30.15;;;;;;;13.75;100.00;101625.22;5086273;28;20034;-65
2021/09/17 01:31:56;;;;;;;37.72;29.48;;;;;;;13.72;100.00;101626.09;5084598;28;20566;-64
2021/09/17 01:34:23;;;;;;;36.67;27.83;;;;;;;13.81;100.00;101627.91;5085028;28;20387;-65
2021/09/17 01:36:50;;;;;;;36.80;28.50;;;;;;;13.83;100.00;101622.59;5085685;28;20035;-64
2021/09/17 01:39:17;;;;;;;37.17;28.08;;;;;;;13.74;100.00;101621.66;5083914;28;20115;-65
2021/09/17 01:41:43;;;;;;;36.97;28.20;;;;;;;13.71;100.00;101620.78;5086476;28;20024;-63
2021/09/17 01:44:08;;;;;;;37.70;28.38;;;;;;;13.77;100.00;101619.03;5083042;28;20035;-65
2021/09/17 01:46:34;;;;;;;35.72;27.40;;;;;;;13.76;100.00;101611.94;5086388;28;20040;-65
2021/09/17 01:49:00;;;;;;;37.90;28.23;;;;;;;13.78;100.00;101617.25;5082945;28;20055;-64
2021/09/17 01:51:25;;;;;;;36.78;28.38;;;;;;;13.75;100.00;101615.47;5085013;28;20024;-66
2021/09/17 01:53:51;;;;;;;37.55;28.40;;;;;;;13.76;100.00;101609.28;5084851;28;20032;-66
2021/09/17 01:56:17;;;;;;;37.88;28.83;;;;;;;13.80;100.00;101612.81;5083717;28;20078;-64
2021/09/17 01:58:42;;;;;;;36.83;28.55;;;;;;;13.76;100.00;101606.63;5086301;28;20379;-66
2021/09/17 02:01:08;;;;;;;35.42;26.60;;;;;;;13.76;100.00;101603.97;5082794;28;20375;-65
2021/09/17 02:03:34;;;;;;;40.47;31.35;;;;;;;13.75;100.00;101599.53;5086363;28;20028;-65
2021/09/17 02:05:59;;;;;;;40.55;31.17;;;;;;;13.77;100.00;101594.22;5083522;28;20059;-66
2021/09/17 02:08:25;;;;;;;39.83;31.17;;;;;;;13.80;100.00;101596.00;5084277;28;20111;-63
2021/09/17 02:10:50;;;;;;;39.00;30.08;;;;;;;13.78;100.00;101602.19;5084951;28;20016;-65
2021/09/17 02:13:20;;;;;;;39.17;30.58;;;;;;;13.74;100.00;101602.19;5083248;28;20032;-65
2021/09/17 02:15:49;;;;;;;38.97;29.75;;;;;;;13.70;100.00;101597.75;5085221;28;20069;-65
2021/09/17 02:18:16;;;;;;;38.47;28.90;;;;;;;13.70;100.00;101600.41;5083506;28;20048;-65
2021/09/17 02:20:42;;;;;;;40.97;31.58;;;;;;;13.67;100.00;101584.44;5085822;28;20032;-65
2021/09/17 02:23:08;;;;;;;41.55;31.98;;;;;;;13.69;100.00;101587.97;5082233;28;20438;-64
2021/09/17 02:25:34;;;;;;;41.05;31.77;;;;;;;13.70;100.00;101585.38;5085640;28;20074;-65
2021/09/17 02:27:59;;;;;;;38.70;30.20;;;;;;;13.77;100.00;101580.94;5083008;28;20024;-64
2021/09/17 02:30:25;;;;;;;44.00;34.08;;;;;;;13.79;100.00;101584.50;5084266;28;20021;-65
2021/09/17 02:32:51;;;;;;;41.30;32.83;;;;;;;13.81;100.00;101576.53;5084491;28;20028;-65
2021/09/17 02:35:16;;;;;;;42.63;32.70;;;;;;;13.78;100.00;101578.28;5082718;28;20028;-64
2021/09/17 02:37:42;;;;;;;42.42;33.70;;;;;;;13.73;100.00;101568.50;5085858;28;20024;-64
2021/09/17 02:40:13;;;;;;;42.05;32.42;;;;;;;13.76;100.00;101572.09;5082231;28;20344;-65
2021/09/17 02:42:38;;;;;;;39.17;30.92;;;;;;;13.78;100.00;101572.09;5081971;28;20147;-65
2021/09/17 02:45:06;;;;;;;42.60;33.22;;;;;;;13.71;100.00;101568.50;5085302;28;20069;-65
2021/09/17 02:47:31;;;;;;;41.28;32.45;;;;;;;13.67;100.00;101572.03;5082981;28;20025;-64
2021/09/17 02:49:57;;;;;;;42.00;32.50;;;;;;;13.72;100.00;101562.31;5084252;28;20387;-64
2021/09/17 02:52:24;;;;;;;40.80;30.50;;;;;;;13.70;100.00;101569.41;5083577;28;20402;-65
2021/09/17 02:54:50;;;;;;;40.10;29.88;;;;;;;13.72;100.00;101557.00;5082888;28;20074;-63
2021/09/17 02:57:15;;;;;;;40.20;30.75;;;;;;;13.73;100.00;101557.88;5084340;28;20068;-65
2021/09/17 02:59:41;;;;;;;41.92;32.70;;;;;;;13.63;100.00;101556.09;5081603;28;20039;-64
2021/09/17 03:02:06;;;;;;;42.08;33.03;;;;;;;13.55;100.00;101553.41;5063749;28;20031;-63
2021/09/17 03:04:32;;;;;;;41.75;32.55;;;;;;;13.58;100.00;101554.31;5084264;28;20471;-65
2021/09/17 03:06:58;;;;;;;41.67;31.90;;;;;;;13.62;100.00;101547.25;5082924;28;20070;-66
2021/09/17 03:09:24;;;;;;;41.08;31.75;;;;;;;13.55;100.00;101550.75;5082963;28;20020;-65
2021/09/17 03:11:50;;;;;;;40.40;31.77;;;;;;;13.53;100.00;101550.75;5083805;28;20026;-66
2021/09/17 03:14:15;;;;;;;42.00;32.78;;;;;;;13.50;100.00;101544.53;5082056;28;20472;-65
2021/09/17 03:16:42;;;;;;;41.75;31.85;;;;;;;13.50;100.00;101544.53;5084773;28;20107;-64
2021/09/17 03:19:07;;;;;;;41.08;32.45;;;;;;;13.50;100.00;101540.13;5081295;28;20020;-65
2021/09/17 03:21:33;;;;;;;40.80;30.58;;;;;;;13.55;100.00;101537.47;5084363;28;20463;-65
2021/09/17 03:23:58;;;;;;;42.20;31.70;;;;;;;13.51;100.00;101539.22;5082094;28;20407;-64
2021/09/17 03:26:24;;;;;;;39.90;30.00;;;;;;;13.57;100.00;101533.03;5082901;28;20029;-65
2021/09/17 03:28:49;;;;;;;40.42;32.05;;;;;;;13.54;100.00;101531.28;5083741;28;20024;-66
2021/09/17 03:31:15;;;;;;;40.95;31.77;;;;;;;13.54;100.00;101522.41;5081563;28;20012;-65
2021/09/17 03:33:40;;;;;;;38.25;29.42;;;;;;;13.64;100.00;101526.00;5084661;28;20028;-65
2021/09/17 03:36:06;;;;;;;43.30;32.63;;;;;;;13.60;100.00;101536.63;5081199;28;20032;-65
2021/09/17 03:38:31;;;;;;;39.35;31.58;;;;;;;13.68;100.00;101533.97;5083788;28;20458;-65
2021/09/17 03:40:57;;;;;;;41.58;31.23;;;;;;;13.73;100.00;101533.97;5082233;28;20066;-65
2021/09/17 03:43:22;;;;;;;39.30;29.67;;;;;;;13.77;100.00;101526.03;5082548;28;20039;-65
2021/09/17 03:45:48;;;;;;;40.00;30.63;;;;;;;13.75;100.00;101526.91;5083498;28;20028;-65
2021/09/17 03:48:14;;;;;;;41.10;31.05;;;;;;;13.69;100.00;101525.13;5081242;28;20028;-65
2021/09/17 03:50:40;;;;;;;39.53;31.20;;;;;;;13.62;100.00;101518.03;5084542;28;20510;-65
2021/09/17 03:53:06;;;;;;;40.08;30.08;;;;;;;13.64;100.00;101518.03;5081058;28;20035;-65
2021/09/17 03:55:34;;;;;;;38.13;29.65;;;;;;;13.65;100.00;101514.50;5083340;28;20024;-66
2021/09/17 03:58:00;;;;;;;38.28;30.00;;;;;;;13.67;100.00;101520.69;5082041;28;20031;-67
2021/09/17 04:00:26;;;;;;;40.33;30.45;;;;;;;13.70;100.00;101518.94;5082719;28;20201;-66
2021/09/17 04:02:51;;;;;;;38.55;29.33;;;;;;;13.72;100.00;101514.50;5082995;28;20118;-67
2021/09/17 04:05:17;;;;;;;40.95;31.83;;;;;;;13.68;100.00;101512.72;5081557;28;20024;-67
2021/09/17 04:07:43;;;;;;;40.47;30.65;;;;;;;13.75;100.00;101516.28;5084116;28;20043;-67
2021/09/17 04:10:14;;;;;;;38.97;30.58;;;;;;;13.75;100.00;101519.81;5080847;28;20036;-66
2021/09/17 04:12:40;;;;;;;41.33;30.75;;;;;;;13.67;100.00;101510.94;5082942;28;20025;-67
2021/09/17 04:15:06;;;;;;;45.53;34.85;;;;;;;13.72;100.00;101510.97;5066681;28;20581;-67
2021/09/17 04:17:32;;;;;;;41.75;32.17;;;;;;;13.71;100.00;101514.50;5087619;28;20021;-67
2021/09/17 04:19:57;;;;;;;42.03;31.65;;;;;;;13.64;100.00;101510.94;5085841;28;20055;-67
2021/09/17 04:22:23;;;;;;;39.90;29.98;;;;;;;13.66;100.00;101517.16;5086421;28;20166;-67
2021/09/17 04:24:48;;;;;;;41.45;31.15;;;;;;;13.63;100.00;101508.28;5087233;28;20016;-66
2021/09/17 04:27:14;;;;;;;39.83;30.90;;;;;;;13.66;100.00;101513.59;5085054;28;20375;-67
2021/09/17 04:29:39;;;;;;;40.50;30.17;;;;;;;13.69;100.00;101513.59;5088078;28;20485;-67
2021/09/17 04:32:05;;;;;;;40.85;31.13;;;;;;;13.70;100.00;101507.41;5085218;28;20025;-67
2021/09/17 04:34:31;;;;;;;41.55;31.40;;;;;;;13.73;100.00;101507.41;5087062;28;20471;-67
2021/09/17 04:36:56;;;;;;;40.13;30.92;;;;;;;13.67;100.00;101516.25;5085844;28;20042;-67
2021/09/17 04:39:22;;;;;;;41.88;31.52;;;;;;;13.65;100.00;101511.84;5085764;28;20379;-67
2021/09/17 04:41:48;;;;;;;42.42;31.88;;;;;;;13.64;100.00;101510.94;5087249;28;20036;-67
2021/09/17 04:44:13;;;;;;;43.95;32.15;;;;;;;13.68;100.00;101511.84;5084446;28;20024;-66
2021/09/17 04:46:39;;;;;;;42.80;32.20;;;;;;;13.66;100.00;101506.53;5069440;28;20039;-67
2021/09/17 04:49:04;;;;;;;41.72;31.27;;;;;;;13.62;100.00;101510.06;5084478;28;20028;-67
2021/09/17 04:51:33;;;;;;;42.40;30.58;;;;;;;13.64;100.00;101510.06;5086927;28;20052;-67
2021/09/17 04:53:58;;;;;;;40.33;30.83;;;;;;;13.64;100.00;101505.63;5085781;28;20028;-67
2021/09/17 04:56:24;;;;;;;41.25;30.83;;;;;;;13.62;100.00;101512.72;5085317;28;20549;-67
2021/09/17 04:58:49;;;;;;;39.63;28.88;;;;;;;13.65;100.00;101518.03;5086686;28;20028;-67
2021/09/17 05:01:15;;;;;;;37.00;27.08;;;;;;;13.64;100.00;101515.38;5084181;28;20029;-66
2021/09/17 05:03:40;;;;;;;42.83;30.77;;;;;;;13.63;100.00;101514.50;5087651;28;20027;-67
2021/09/17 05:06:06;;;;;;;41.75;29.77;;;;;;;13.63;100.00;101514.50;5084289;28;20035;-67
2021/09/17 05:08:31;;;;;;;41.72;31.23;;;;;;;13.58;100.00;101514.47;5086305;28;20126;-67
2021/09/17 05:10:57;;;;;;;41.58;31.13;;;;;;;13.58;100.00;101511.78;5085085;28;20471;-67
2021/09/17 05:13:22;;;;;;;42.08;31.45;;;;;;;13.58;100.00;101513.59;5085172;28;20028;-67
2021/09/17 05:15:48;;;;;;;40.88;30.48;;;;;;;13.62;100.00;101511.84;5086244;28;20024;-67
2021/09/17 05:18:14;;;;;;;40.60;29.55;;;;;;;13.63;100.00;101514.50;5083677;28;20036;-66
2021/09/17 05:20:39;;;;;;;38.33;28.30;;;;;;;13.59;100.00;101512.72;5087021;28;20035;-67
2021/09/17 05:23:06;;;;;;;39.20;28.63;;;;;;;13.59;100.00;101512.72;5083138;28;20025;-67
2021/09/17 05:25:32;;;;;;;40.28;29.25;;;;;;;13.53;100.00;101508.25;5088758;28;20028;-67
2021/09/17 05:27:58;;;;;;;43.22;32.17;;;;;;;13.53;100.00;101505.59;5086705;28;20025;-63
2021/09/17 05:30:23;;;;;;;39.80;30.73;;;;;;;13.52;100.00;101503.81;5090621;28;20121;-64
2021/09/17 05:32:49;;;;;;;40.13;30.73;;;;;;;13.51;100.00;101503.81;5091439;28;20016;-63
2021/09/17 05:35:15;;;;;;;44.75;30.80;;;;;;;13.48;100.00;101503.81;5099716;28;20070;-65
2021/09/17 05:37:40;;;;;;;41.50;31.60;;;;;;;13.47;100.00;101508.25;5089292;28;20016;-65
2021/09/17 05:40:07;;;;;;;41.75;31.88;;;;;;;13.48;100.00;101503.81;5099769;28;20536;-64
2021/09/17 05:42:33;;;;;;;44.10;33.35;;;;;;;13.47;100.00;101502.94;5098933;28;20047;-63
2021/09/17 05:44:58;;;;;;;42.92;32.03;;;;;;;13.50;100.00;101502.94;5099109;28;20100;-65
2021/09/17 05:47:24;;;;;;;41.53;31.38;;;;;;;13.55;100.00;101505.59;5092424;28;20024;-66
2021/09/17 05:49:49;;;;;;;43.30;32.55;;;;;;;13.56;100.00;101504.72;5088864;28;20066;-63
2021/09/17 05:52:15;;;;;;;43.65;32.40;;;;;;;13.56;100.00;101494.97;5095623;28;20026;-63
2021/09/17 05:54:41;;;;;;;46.22;33.90;;;;;;;13.60;100.00;101499.44;5090019;28;20020;-65
2021/09/17 05:57:07;;;;;;;44.60;33.35;;;;;;;13.67;100.00;101504.75;5068931;28;20105;-63
2021/09/17 05:59:33;;;;;;;44.85;33.33;;;;;;;13.65;100.00;101496.78;5089071;28;20174;-64
2021/09/17 06:01:58;;;;;;;48.00;36.42;;;;;;;13.62;100.00;101493.25;5090239;28;20111;-63
2021/09/17 06:04:24;;;;;;;49.35;38.28;;;;;;;13.63;100.00;101490.59;5088119;28;20491;-63
2021/09/17 06:06:49;;;;;;;51.55;38.30;;;;;;;13.70;100.00;101488.81;5089153;28;20052;-62
2021/09/17 06:09:15;;;;;;;51.15;39.92;;;;;;;13.75;100.00;101503.00;5087637;28;20021;-64
2021/09/17 06:11:40;;;;;;;52.55;40.33;;;;;;;13.78;100.00;101500.34;5089506;28;20499;-66
2021/09/17 06:14:06;;;;;;;52.08;40.75;;;;;;;13.86;100.00;101501.25;5090535;28;20049;-62
2021/09/17 06:16:33;;;;;;;51.55;40.35;;;;;;;13.92;100.00;101500.34;5085953;28;20039;-62
2021/09/17 06:19:03;;;;;;;50.83;40.15;;;;;;;13.99;100.00;101509.22;5072319;28;20028;-62
2021/09/17 06:21:33;;;;;;;53.20;40.35;;;;;;;14.05;100.00;101503.91;5083792;28;20474;-62
2021/09/17 06:24:00;;;;;;;53.35;40.67;;;;;;;14.07;100.00;101511.00;5089332;28;20505;-62
2021/09/17 06:26:35;;;;;;;50.90;40.60;;;;;;;14.12;100.00;101511.00;5089156;28;20032;-64
2021/09/17 06:29:04;;;;;;;50.70;39.85;;;;;;;14.17;100.00;101511.91;5089392;28;20123;-63
2021/09/17 06:31:31;;;;;;;49.08;39.60;;;;;;;14.20;100.00;101517.22;5083292;28;20523;-63
2021/09/17 06:33:56;;;;;;;51.13;40.22;;;;;;;14.20;100.00;101516.31;5089552;28;20033;-63
2021/09/17 06:36:22;;;;;;;51.17;40.50;;;;;;;14.22;100.00;101512.75;5089247;28;20643;-64
2021/09/17 06:38:47;;;;;;;51.08;39.25;;;;;;;14.23;100.00;101511.00;5086860;28;20027;-63
2021/09/17 06:41:13;;;;;;;51.17;41.47;;;;;;;14.22;100.00;101520.75;5070642;28;20093;-63
2021/09/17 06:43:38;;;;;;;51.58;41.63;;;;;;;14.25;100.00;101509.22;5088989;28;20496;-64
2021/09/17 06:46:04;;;;;;;51.80;42.03;;;;;;;14.28;100.00;101515.44;5087583;28;20466;-63
2021/09/17 06:48:30;;;;;;;52.50;41.90;;;;;;;14.25;100.00;101520.75;5086624;28;20067;-64
2021/09/17 06:50:55;;;;;;;53.35;41.63;;;;;;;14.23;100.00;101517.22;5089157;28;20589;-65
2021/09/17 06:53:21;;;;;;;51.35;42.05;;;;;;;14.22;100.00;101526.06;5087244;28;20020;-64
2021/09/17 06:55:47;;;;;;;53.70;43.97;;;;;;;14.18;100.00;101524.28;5069919;28;20039;-65
2021/09/17 06:58:12;;;;;;;55.58;44.67;;;;;;;14.18;100.00;101518.09;5070092;28;20029;-64
2021/09/17 07:00:39;;;;;;;54.40;44.42;;;;;;;14.19;100.00;101518.09;5087150;28;20060;-63
2021/09/17 07:03:05;;;;;;;54.35;44.50;;;;;;;14.24;100.00;101529.63;5089928;28;20024;-63
2021/09/17 07:05:32;;;;;;;53.08;43.88;;;;;;;14.35;100.00;101528.72;5084596;28;20106;-64
2021/09/17 07:08:03;;;;;;;55.70;44.65;;;;;;;14.42;100.00;101523.41;5088467;28;20020;-66
2021/09/17 07:10:29;;;;;;;55.03;45.22;;;;;;;14.53;100.00;101515.41;5087197;28;20108;-64
2021/09/17 07:12:55;;;;;;;55.78;45.38;;;;;;;14.72;100.00;101523.38;5089432;28;20115;-64
2021/09/17 07:15:20;;;;;;;55.22;44.92;;;;;;;14.88;100.00;101526.91;5088214;28;20025;-65
2021/09/17 07:17:46;;;;;;;52.58;42.63;;;;;;;15.02;100.00;101518.88;5087299;28;20024;-64
2021/09/17 07:20:12;;;;;;;56.13;44.40;;;;;;;15.12;100.00;101517.97;5088590;28;20371;-61
2021/09/17 07:22:37;;;;;;;53.50;42.63;;;;;;;15.12;99.31;101518.84;5089963;28;20032;-61
2021/09/17 07:25:04;;;;;;;52.00;42.47;;;;;;;15.12;97.93;101521.50;5091624;28;20485;-61
2021/09/17 07:27:30;;;;;;;51.33;42.38;;;;;;;15.09;99.39;101525.97;5068303;28;20028;-61
2021/09/17 07:29:57;;;;;;;52.95;43.03;;;;;;;15.11;99.54;101518.84;5087714;28;20024;-61
2021/09/17 07:32:23;;;;;;;54.58;43.88;;;;;;;15.18;98.88;101517.06;5090669;28;20031;-61
2021/09/17 07:34:48;;;;;;;50.85;42.15;;;;;;;15.27;96.85;101527.66;5087264;28;20020;-61
2021/09/17 07:37:14;;;;;;;54.15;44.75;;;;;;;15.32;100.00;101521.41;5085671;28;20035;-61
2021/09/17 07:39:40;;;;;;;52.17;42.95;;;;;;;15.36;97.01;101513.41;5087145;28;20475;-61
2021/09/17 07:42:07;;;;;;;54.83;45.88;;;;;;;15.30;97.61;101517.00;5089776;28;20187;-61
2021/09/17 07:44:33;;;;;;;55.33;44.60;;;;;;;15.34;100.00;101521.41;5087347;28;20036;-61
2021/09/17 07:46:59;;;;;;;53.47;44.17;;;;;;;15.38;99.88;101520.50;5086248;28;20100;-61
2021/09/17 07:49:24;;;;;;;56.53;43.80;;;;;;;15.46;100.00;101523.13;5068251;28;20056;-61
2021/09/17 07:51:50;;;;;;;56.05;45.17;;;;;;;15.47;97.37;101522.25;5088690;28;20031;-61
2021/09/17 07:54:15;;;;;;;59.72;47.55;;;;;;;15.37;97.32;101528.50;5089107;28;20470;-61
2021/09/17 07:56:41;;;;;;;55.90;45.58;;;;;;;15.45;100.00;101524.00;5088117;28;20036;-61
2021/09/17 07:59:07;;;;;;;55.67;46.58;;;;;;;15.44;100.00;101522.25;5087616;28;20432;-61
2021/09/17 08:01:32;;;;;;;56.63;47.30;;;;;;;15.46;98.11;101523.13;5088188;28;20036;-61
2021/09/17 08:03:58;;;;;;;56.88;46.60;;;;;;;15.42;98.85;101516.03;5084089;28;20016;-61
2021/09/17 08:06:23;;;;;;;57.35;47.58;;;;;;;15.45;100.00;101527.59;5086107;28;20107;-61
2021/09/17 08:08:49;;;;;;;57.15;48.90;;;;;;;15.60;100.00;101528.41;5084924;28;20039;-61
2021/09/17 08:11:14;;;;;;;58.63;48.88;;;;;;;15.63;96.32;101526.59;5086684;28;20043;-60
2021/09/17 08:13:40;;;;;;;60.13;48.83;;;;;;;15.71;97.21;101528.31;5087160;28;20059;-60
2021/09/17 08:16:05;;;;;;;58.28;48.90;;;;;;;15.88;98.12;101521.13;5067032;28;20513;-60
2021/09/17 08:18:31;;;;;;;56.53;47.72;;;;;;;15.90;97.16;101524.69;5084641;28;20107;-60
2021/09/17 08:20:59;;;;;;;57.90;48.78;;;;;;;16.13;96.57;101528.94;5084489;28;20402;-60
2021/09/17 08:23:26;;;;;;;56.22;46.72;;;;;;;16.20;90.75;101528.00;5070558;28;20514;-60
2021/09/17 08:25:55;;;;;;;58.75;50.15;;;;;;;16.19;96.01;101520.88;5085974;28;20081;-60
2021/09/17 08:28:26;;;;;;;55.58;45.47;;;;;;;16.24;92.70;101527.09;5067882;28;20120;-60
2021/09/17 08:30:52;;;;;;;57.03;47.25;;;;;;;16.34;93.03;101522.56;5067767;28;20043;-63
2021/09/17 08:33:18;;;;;;;59.55;49.50;;;;;;;16.36;92.17;101524.28;5086039;28;20033;-62
2021/09/17 08:35:44;;;;;;;57.25;47.67;;;;;;;16.41;88.92;101520.72;5052508;28;20407;-64
2021/09/17 08:38:10;;;;;;;57.58;47.92;;;;;;;16.44;90.94;101518.91;5086173;28;20017;-61
2021/09/17 08:40:35;;;;;;;57.15;46.50;;;;;;;16.60;89.28;101516.97;5082229;28;20154;-61
2021/09/17 08:43:01;;;;;;;58.80;48.10;;;;;;;16.82;86.11;101519.41;5087415;28;20423;-61
2021/09/17 08:45:28;;;;;;;55.28;45.28;;;;;;;17.29;83.32;101511.78;5088786;28;20028;-61
2021/09/17 08:47:53;;;;;;;52.40;43.72;;;;;;;17.71;80.69;101525.47;5087837;28;20031;-62
2021/09/17 08:50:20;;;;;;;53.42;44.38;;;;;;;18.07;80.05;101520.47;5085102;28;20020;-62
2021/09/17 08:52:46;;;;;;;50.65;40.97;;;;;;;18.45;78.89;101519.81;5087834;28;20024;-63
2021/09/17 08:55:13;;;;;;;51.42;42.00;;;;;;;18.76;75.47;101524.63;5088222;28;20036;-66
2021/09/17 08:57:38;;;;;;;49.42;41.10;;;;;;;19.06;71.90;101519.63;5089432;28;20410;-67
2021/09/17 09:00:26;;;;;;;49.95;40.85;;;;;;;19.33;70.83;101517.25;5089508;28;20055;-66
2021/09/17 09:02:54;;;;;;;47.65;38.03;;;;;;;19.54;68.81;101515.03;5087786;28;20032;-64
2021/09/17 09:05:34;;;;;;;48.45;38.72;;;;;;;19.94;69.16;101514.13;5089530;28;20050;-66
2021/09/17 09:08:05;;;;;;;48.47;38.20;;;;;;;20.39;66.81;101519.28;5074748;28;20032;-66
2021/09/17 09:10:31;;;;;;;49.15;38.65;;;;;;;20.56;65.51;101513.44;5090647;28;20020;-66
2021/09/17 09:13:05;;;;;;;47.05;37.33;;;;;;;20.69;65.75;101519.38;5087632;28;20111;-66
2021/09/17 09:15:33;;;;;;;45.97;37.00;;;;;;;20.84;64.98;101518.97;5090893;28;20073;-65
2021/09/17 09:18:04;;;;;;;47.53;39.03;;;;;;;21.09;63.91;101518.28;5093175;28;20077;-65
2021/09/17 09:20:34;;;;;;;46.83;37.00;;;;;;;21.41;62.60;101511.06;5098354;28;20028;-64
2021/09/17 09:23:06;;;;;;;46.97;37.17;;;;;;;21.83;60.47;101509.78;5094401;28;20103;-66
2021/09/17 09:25:35;;;;;;;47.45;36.17;;;;;;;21.98;58.82;101497.66;5092266;28;20027;-66
2021/09/17 09:28:43;;;;;;;45.40;34.58;;;;;;;22.39;59.05;101504.34;5097081;28;20020;-62
2021/09/17 09:31:10;;;;;;;44.80;33.67;;;;;;;22.47;57.14;101501.41;5095384;28;20024;-63
2021/09/17 09:33:40;;;;;;;44.47;34.00;;;;;;;22.91;57.54;101507.00;5102630;28;20091;-62
2021/09/17 09:36:12;;;;;;;46.45;36.38;;;;;;;22.93;56.07;101507.81;5100021;28;20024;-68
2021/09/17 09:38:54;;;;;;;47.60;35.40;;;;;;;23.04;57.06;101506.53;5092932;28;20474;-64
2021/09/17 09:41:26;;;;;;;46.53;34.83;;;;;;;23.10;53.85;101511.72;5100693;28;20114;-65
2021/09/17 09:43:56;;;;;;;46.00;32.85;;;;;;;23.24;53.93;101505.81;5100699;28;20031;-66
2021/09/17 09:46:35;;;;;;;46.92;34.08;;;;;;;23.00;54.59;101511.16;5089786;28;20028;-66
2021/09/17 09:49:28;;;;;;;48.58;35.58;;;;;;;22.90;54.66;101507.94;5087669;28;20025;-66
2021/09/17 09:52:07;;;;;;;;;;;;;;;23.38;55.71;101510.69;5092416;28;20032;-65
2021/09/17 09:54:35;;;;;;;47.92;34.72;;;;;;;23.24;55.05;101506.72;5090067;28;19912;-65
2021/09/17 09:57:02;;;;;;;45.25;32.33;;;;;;;23.44;53.94;101505.03;5090397;28;20044;-64
2021/09/17 09:59:30;;;;;;;47.40;33.05;;;;;;;23.10;54.52;101509.03;5086366;28;20395;-64
2021/09/17 10:01:59;;;;;;;46.55;32.05;;;;;;;23.15;54.68;101515.13;5092459;28;20403;-64
2021/09/17 10:04:26;;;;;;;46.70;32.78;;;;;;;23.43;53.87;101516.75;5086220;28;20052;-64
2021/09/17 10:07:12;;;;;;;48.45;34.20;;;;;;;23.90;52.97;101508.63;5069543;28;20491;-63
2021/09/17 10:09:41;;;;;;;45.72;32.80;;;;;;;24.53;52.09;101513.19;5087088;28;20040;-65
2021/09/17 10:12:09;;;;;;;45.60;32.75;;;;;;;25.51;49.58;101504.28;5089723;28;20418;-65
2021/09/17 10:14:35;;;;;;;43.42;31.10;;;;;;;26.28;47.33;101508.63;5088149;28;20020;-65
2021/09/17 10:17:05;;;;;;;43.55;29.60;;;;;;;26.32;45.21;101512.94;5068678;28;20111;-65
2021/09/17 10:19:31;;;;;;;42.38;28.90;;;;;;;25.93;46.26;101509.44;5088713;28;20027;-64
2021/09/17 10:22:00;;;;;;;39.13;25.90;;;;;;;26.54;44.41;101507.25;5092007;28;20463;-65
2021/09/17 10:24:25;;;;;;;38.05;25.40;;;;;;;27.37;42.08;101509.22;5089115;28;20048;-66
2021/09/17 10:27:04;;;;;;;39.10;26.58;;;;;;;26.25;44.67;101508.78;5090811;28;20438;-67
2021/09/17 10:29:45;;;;;;;38.58;26.17;;;;;;;26.58;45.08;101505.28;5090584;28;20107;-68
2021/09/17 10:32:26;;;;;;;36.28;24.75;;;;;;;27.96;43.51;101501.31;5088209;28;20119;-69
2021/09/17 10:35:13;;;;;;;35.95;23.98;;;;;;;28.71;39.38;101515.00;5079570;28;20104;-68
2021/09/17 10:37:57;;;;;;;34.25;23.05;;;;;;;28.10;39.94;101506.84;5083883;28;20044;-68
2021/09/17 10:40:52;;;;;;;34.25;22.50;;;;;;;28.65;39.38;101516.25;5066969;28;20420;-68
2021/09/17 10:43:17;;;;;;;34.20;23.40;;;;;;;28.52;37.82;101515.22;5081749;28;20056;-68
2021/09/17 10:45:51;;;;;;;32.67;21.17;;;;;;;28.57;39.25;101517.66;5084546;28;20070;-68
2021/09/17 10:48:51;;;;;;;30.95;19.42;;;;;;;29.71;37.54;101507.78;5082021;28;20048;-69
2021/09/17 10:51:40;;;;;;;33.05;20.52;;;;;;;30.39;35.82;101503.22;5081821;28;20530;-68
2021/09/17 10:54:14;;;;;;;32.55;21.27;;;;;;;30.48;34.36;101510.81;5082179;28;20476;-68
2021/09/17 10:56:48;;;;;;;32.75;21.98;;;;;;;29.82;35.83;101505.22;5081533;28;20162;-67
2021/09/17 10:59:27;;;;;;;33.97;22.65;;;;;;;29.88;36.03;101509.41;5081563;28;20032;-68
2021/09/17 11:02:05;;;;;;;33.03;21.20;;;;;;;29.68;35.81;101510.72;5083788;28;20043;-68
2021/09/17 11:04:33;;;;;;;32.88;21.67;;;;;;;27.75;37.83;101509.75;5083936;28;20031;-68
2021/09/17 11:07:17;;;;;;;30.40;20.85;;;;;;;26.23;41.41;101506.16;5082998;28;20119;-68